createdAt,value
2023-02-03T00:01:56.931Z,1.50
2023-02-03T00:04:23.830Z,1.70
2023-02-03T00:06:51.087Z,1.55
2023-02-03T00:09:18.460Z,1.50
2023-02-03T00:11:45.374Z,1.60
2023-02-03T00:14:12.248Z,1.63
2023-02-03T00:16:39.206Z,1.42
2023-02-03T00:19:06.220Z,1.70
2023-02-03T00:21:33.890Z,1.50
2023-02-03T00:24:01.055Z,1.80
2023-02-03T00:26:28.774Z,1.83
2023-02-03T00:28:55.702Z,1.63
2023-02-03T00:31:23.887Z,1.80
2023-02-03T00:33:59.848Z,1.90
2023-02-03T00:36:26.835Z,1.60
2023-02-03T00:38:54.145Z,1.90
2023-02-03T00:41:21.272Z,1.88
2023-02-03T00:43:48.753Z,1.67
2023-02-03T00:46:16.044Z,1.60
2023-02-03T00:48:42.944Z,1.90
2023-02-03T00:51:09.844Z,1.90
2023-02-03T00:53:36.835Z,2.00
2023-02-03T00:56:03.822Z,1.77
2023-02-03T00:58:30.936Z,2.00
2023-02-03T01:00:57.948Z,1.90
2023-02-03T01:03:25.558Z,1.98
2023-02-03T01:05:52.568Z,1.85
2023-02-03T01:08:19.786Z,1.98
2023-02-03T01:10:46.671Z,1.60
2023-02-03T01:13:13.625Z,1.50
2023-02-03T01:15:47.908Z,1.73
2023-02-03T01:18:14.884Z,1.83
2023-02-03T01:20:41.823Z,1.60
2023-02-03T01:23:08.787Z,1.70
2023-02-03T01:25:36.351Z,1.67
2023-02-03T01:28:03.321Z,1.60
2023-02-03T01:30:30.362Z,1.60
2023-02-03T01:32:57.336Z,1.73
2023-02-03T01:35:25.919Z,1.65
2023-02-03T01:37:52.932Z,1.73
2023-02-03T01:40:20.029Z,1.80
2023-02-03T01:42:46.937Z,1.70
2023-02-03T01:45:14.160Z,1.70
2023-02-03T01:47:50.305Z,1.60
2023-02-03T01:50:21.186Z,1.52
2023-02-03T01:52:59.201Z,1.67
2023-02-03T01:55:28.600Z,1.58
2023-02-03T01:58:03.027Z,1.50
2023-02-03T02:00:29.985Z,1.52
2023-02-03T02:02:59.564Z,1.80
2023-02-03T02:05:39.455Z,1.40
2023-02-03T02:08:06.332Z,1.85
2023-02-03T02:10:35.168Z,1.70
2023-02-03T02:13:02.736Z,1.60
2023-02-03T02:15:45.277Z,1.63
2023-02-03T02:18:18.288Z,1.58
2023-02-03T02:20:58.682Z,1.70
2023-02-03T02:23:46.200Z,1.70
2023-02-03T02:26:31.890Z,1.63
2023-02-03T02:29:36.967Z,1.60
2023-02-03T02:32:16.195Z,1.48
2023-02-03T02:34:46.995Z,1.65
2023-02-03T02:37:23.053Z,1.50
2023-02-03T02:40:20.678Z,1.50
2023-02-03T02:43:00.733Z,1.50
2023-02-03T02:45:48.264Z,1.42
2023-02-03T02:48:40.725Z,1.60
2023-02-03T02:51:08.661Z,1.60
2023-02-03T02:53:41.354Z,1.48
2023-02-03T02:56:11.690Z,1.38
2023-02-03T02:58:39.499Z,1.33
2023-02-03T03:01:08.342Z,1.42
2023-02-03T03:03:40.656Z,1.70
2023-02-03T03:06:09.374Z,1.48
2023-02-03T03:08:53.707Z,1.60
2023-02-03T03:11:20.587Z,1.50
2023-02-03T03:13:57.151Z,1.90
2023-02-03T03:16:26.021Z,1.48
2023-02-03T03:19:01.437Z,1.65
2023-02-03T03:21:35.132Z,1.52
2023-02-03T03:24:04.155Z,1.30
2023-02-03T03:26:35.389Z,1.65
2023-02-03T03:29:16.050Z,1.50
2023-02-03T03:31:42.951Z,1.40
2023-02-03T03:34:10.140Z,1.30
2023-02-03T03:36:48.821Z,1.50
2023-02-03T03:39:46.052Z,1.50
2023-02-03T03:42:42.276Z,1.45
2023-02-03T03:45:23.176Z,1.55
2023-02-03T03:47:52.061Z,1.40
2023-02-03T03:50:20.923Z,1.63
2023-02-03T03:52:47.845Z,1.50
2023-02-03T03:55:14.980Z,1.50
2023-02-03T03:57:53.667Z,1.50
2023-02-03T04:00:20.580Z,1.50
2023-02-03T04:02:51.572Z,1.40
2023-02-03T04:05:18.859Z,1.60
2023-02-03T04:07:46.684Z,1.90
2023-02-03T04:10:26.278Z,1.70
2023-02-03T04:12:53.515Z,1.80
2023-02-03T04:15:20.446Z,1.55
2023-02-03T04:17:47.363Z,1.45
2023-02-03T04:20:14.376Z,1.60
2023-02-03T04:22:41.269Z,1.70
2023-02-03T04:25:08.471Z,1.70
2023-02-03T04:27:35.814Z,1.80
2023-02-03T04:30:02.743Z,1.50
2023-02-03T04:32:31.016Z,1.60
2023-02-03T04:34:58.691Z,1.50
2023-02-03T04:37:26.936Z,1.50
2023-02-03T04:39:55.426Z,1.55
2023-02-03T04:42:22.922Z,1.60
2023-02-03T04:44:49.955Z,1.65
2023-02-03T04:47:17.279Z,1.70
2023-02-03T04:49:44.247Z,1.75
2023-02-03T04:52:11.322Z,1.75
2023-02-03T04:54:38.265Z,1.55
2023-02-03T04:57:05.476Z,1.52
2023-02-03T04:59:32.420Z,1.50
2023-02-03T05:01:59.316Z,1.65
2023-02-03T05:04:26.393Z,1.88
2023-02-03T05:06:53.365Z,1.63
2023-02-03T05:09:20.233Z,1.77
2023-02-03T05:11:47.244Z,1.48
2023-02-03T05:14:14.129Z,1.60
2023-02-03T05:16:41.186Z,1.60
2023-02-03T05:19:09.121Z,1.77
2023-02-03T05:21:36.035Z,1.95
2023-02-03T05:24:06.847Z,1.90
2023-02-03T05:26:34.882Z,1.80
2023-02-03T05:29:01.925Z,1.73
2023-02-03T05:31:28.865Z,1.85
2023-02-03T05:33:55.768Z,1.80
2023-02-03T05:36:22.709Z,1.70
2023-02-03T05:38:49.664Z,1.70
2023-02-03T05:41:35.091Z,1.80
2023-02-03T05:44:01.961Z,1.60
2023-02-03T05:46:29.115Z,1.88
2023-02-03T05:48:56.026Z,1.80
2023-02-03T05:51:22.994Z,2.03
2023-02-03T05:53:49.880Z,1.83
2023-02-03T05:56:17.046Z,1.73
2023-02-03T05:58:43.946Z,2.22
2023-02-03T06:01:12.057Z,1.70
2023-02-03T06:03:39.226Z,1.70
2023-02-03T06:06:06.292Z,1.60
2023-02-03T06:08:33.241Z,1.70
2023-02-03T06:11:00.744Z,1.80
2023-02-03T06:13:27.919Z,1.88
2023-02-03T06:15:54.901Z,1.80
2023-02-03T06:18:21.800Z,1.52
2023-02-03T06:20:48.843Z,1.77
2023-02-03T06:23:17.189Z,1.90
2023-02-03T06:25:44.145Z,1.85
2023-02-03T06:28:11.450Z,1.75
2023-02-03T06:30:38.615Z,1.70
2023-02-03T06:33:05.636Z,1.70
2023-02-03T06:35:32.626Z,1.70
2023-02-03T06:37:59.564Z,1.88
2023-02-03T06:40:26.792Z,2.05
2023-02-03T06:42:53.899Z,2.08
2023-02-03T06:45:20.855Z,2.22
2023-02-03T06:47:48.183Z,2.20
2023-02-03T06:50:15.537Z,2.08
2023-02-03T06:52:42.634Z,1.80
2023-02-03T06:55:09.882Z,1.77
2023-02-03T06:57:42.463Z,1.90
2023-02-03T07:00:11.196Z,2.00
2023-02-03T07:02:40.206Z,2.45
2023-02-03T07:05:07.415Z,2.15
2023-02-03T07:07:34.399Z,2.05
2023-02-03T07:10:02.318Z,2.50
2023-02-03T07:12:29.248Z,2.75
2023-02-03T07:14:56.494Z,2.50
2023-02-03T07:17:23.478Z,2.03
2023-02-03T07:19:50.458Z,2.15
2023-02-03T07:22:17.364Z,1.95
2023-02-03T07:24:44.270Z,1.80
2023-02-03T07:27:11.172Z,2.05
2023-02-03T07:29:38.036Z,1.80
2023-02-03T07:32:05.118Z,1.77
2023-02-03T07:34:32.133Z,1.80
2023-02-03T07:36:59.013Z,1.75
2023-02-03T07:39:26.136Z,1.80
2023-02-03T07:41:53.047Z,1.63
2023-02-03T07:44:22.365Z,1.67
2023-02-03T07:46:49.306Z,1.40
2023-02-03T07:49:16.248Z,1.73
2023-02-03T07:51:43.160Z,2.08
2023-02-03T07:54:10.137Z,1.85
2023-02-03T07:56:37.036Z,1.92
2023-02-03T07:59:04.067Z,1.80
2023-02-03T08:01:31.548Z,1.77
2023-02-03T08:03:58.482Z,1.88
2023-02-03T08:06:25.450Z,1.83
2023-02-03T08:08:54.097Z,1.98
2023-02-03T08:11:21.036Z,2.10
2023-02-03T08:13:47.947Z,2.38
2023-02-03T08:16:14.924Z,1.90
2023-02-03T08:18:41.806Z,1.90
2023-02-03T08:21:08.733Z,2.10
2023-02-03T08:23:35.693Z,2.40
2023-02-03T08:26:02.647Z,2.20
2023-02-03T08:28:29.591Z,2.30
2023-02-03T08:30:57.776Z,2.00
2023-02-03T08:33:25.053Z,2.42
2023-02-03T08:35:51.910Z,2.20
2023-02-03T08:38:18.823Z,2.15
2023-02-03T08:40:45.800Z,2.20
2023-02-03T08:43:12.809Z,2.20
2023-02-03T08:45:40.717Z,2.20
2023-02-03T08:48:07.699Z,2.30
2023-02-03T08:50:34.682Z,2.00
2023-02-03T08:53:01.640Z,2.22
2023-02-03T08:55:28.648Z,2.20
2023-02-03T08:57:56.157Z,2.38
2023-02-03T09:00:23.335Z,2.00
2023-02-03T09:02:50.587Z,2.05
2023-02-03T09:05:18.585Z,2.10
2023-02-03T09:07:46.932Z,2.00
2023-02-03T09:10:14.687Z,1.92
2023-02-03T09:12:41.867Z,1.88
2023-02-03T09:15:10.028Z,1.92
2023-02-03T09:17:37.953Z,2.17
2023-02-03T09:20:06.066Z,2.10
2023-02-03T09:22:33.183Z,2.40
2023-02-03T09:25:00.400Z,2.38
2023-02-03T09:27:27.388Z,2.08
2023-02-03T09:29:54.475Z,2.10
2023-02-03T09:32:21.454Z,2.00
2023-02-03T09:34:48.476Z,1.90
2023-02-03T09:37:15.535Z,2.00
2023-02-03T09:39:42.603Z,2.13
2023-02-03T09:42:20.537Z,2.33
2023-02-03T09:44:53.531Z,2.20
2023-02-03T09:47:30.150Z,2.15
2023-02-03T09:50:01.211Z,2.17
2023-02-03T09:52:54.684Z,2.20
2023-02-03T09:55:26.387Z,2.10
2023-02-03T09:57:57.271Z,1.90
2023-02-03T10:00:28.110Z,2.30
2023-02-03T10:03:07.071Z,2.63
2023-02-03T10:05:56.332Z,2.20
2023-02-03T10:08:35.595Z,2.33
2023-02-03T10:11:16.702Z,2.50
2023-02-03T10:14:16.533Z,2.23
2023-02-03T10:16:53.513Z,2.53
2023-02-03T10:19:22.825Z,2.45
2023-02-03T10:21:55.422Z,2.63
2023-02-03T10:24:47.171Z,2.13
2023-02-03T10:27:22.771Z,2.10
2023-02-03T10:29:56.059Z,1.95
2023-02-03T10:32:24.325Z,2.20
2023-02-03T10:34:51.397Z,2.47
2023-02-03T10:37:31.147Z,2.33
2023-02-03T10:39:58.561Z,2.30
2023-02-03T10:42:25.616Z,2.30
2023-02-03T10:45:04.107Z,2.53
2023-02-03T10:47:35.747Z,2.47
2023-02-03T10:50:17.156Z,2.30
2023-02-03T10:52:44.219Z,2.50
2023-02-03T10:55:26.386Z,2.42
2023-02-03T10:57:54.087Z,2.30
2023-02-03T11:00:31.655Z,3.00
2023-02-03T11:03:02.544Z,2.10
2023-02-03T11:05:29.617Z,2.30
2023-02-03T11:07:57.087Z,2.35
2023-02-03T11:10:38.709Z,2.45
2023-02-03T11:13:25.667Z,2.67
2023-02-03T11:15:56.490Z,2.13
2023-02-03T11:18:51.837Z,2.33
2023-02-03T11:21:40.839Z,2.15
2023-02-03T11:24:33.202Z,2.05
2023-02-03T11:27:27.779Z,2.13
2023-02-03T11:30:16.082Z,2.20
2023-02-03T11:32:43.295Z,2.45
2023-02-03T11:35:26.766Z,2.55
2023-02-03T11:37:58.409Z,2.00
2023-02-03T11:40:33.924Z,2.50
2023-02-03T11:43:03.522Z,2.38
2023-02-03T11:45:38.772Z,2.40
2023-02-03T11:48:17.572Z,2.13
2023-02-03T11:51:06.109Z,2.22
2023-02-03T11:53:33.172Z,2.05
2023-02-03T11:56:28.305Z,2.30
2023-02-03T11:59:16.824Z,2.20
2023-02-03T12:02:18.360Z,2.20
2023-02-03T12:05:23.020Z,2.58
2023-02-03T12:08:27.353Z,2.40
2023-02-03T12:11:00.763Z,2.40
2023-02-03T12:14:13.744Z,2.58
2023-02-03T12:16:49.699Z,2.50
2023-02-03T12:19:59.264Z,2.30
2023-02-03T12:22:31.858Z,2.58
2023-02-03T12:25:14.647Z,2.17
2023-02-03T12:27:55.010Z,2.70
2023-02-03T12:30:22.660Z,2.55
2023-02-03T12:32:58.399Z,2.33
2023-02-03T12:35:36.333Z,2.00
2023-02-03T12:38:29.938Z,2.85
2023-02-03T12:40:59.884Z,2.42
2023-02-03T12:43:50.681Z,2.17
2023-02-03T12:46:51.722Z,2.25
2023-02-03T12:49:27.829Z,2.40
2023-02-03T12:52:03.717Z,2.30
2023-02-03T12:54:48.752Z,2.58
2023-02-03T12:57:20.965Z,2.55
2023-02-03T13:00:15.931Z,2.65
2023-02-03T13:02:53.301Z,2.40
2023-02-03T13:06:21.766Z,2.70
2023-02-03T13:08:59.490Z,2.50
2023-02-03T13:11:29.361Z,2.50
2023-02-03T13:14:17.057Z,2.28
2023-02-03T13:16:44.953Z,2.80
2023-02-03T13:19:16.032Z,2.45
2023-02-03T13:21:43.027Z,2.50
2023-02-03T13:24:11.026Z,2.50
2023-02-03T13:26:48.626Z,2.50
2023-02-03T13:29:21.554Z,2.50
2023-02-03T13:32:11.029Z,2.38
2023-02-03T13:34:49.969Z,2.33
2023-02-03T13:37:26.272Z,2.80
2023-02-03T13:40:06.168Z,3.08
2023-02-03T13:42:34.437Z,3.03
2023-02-03T13:45:22.525Z,3.00
2023-02-03T13:47:51.005Z,2.97
2023-02-03T13:50:26.434Z,2.85
2023-02-03T13:52:57.267Z,2.75
2023-02-03T13:55:41.557Z,2.40
2023-02-03T13:58:28.532Z,2.25
2023-02-03T14:00:56.483Z,2.13
2023-02-03T14:03:26.625Z,2.42
2023-02-03T14:05:54.614Z,2.22
2023-02-03T14:08:27.721Z,2.35
2023-02-03T14:11:32.516Z,2.35
2023-02-03T14:14:08.782Z,2.38
2023-02-03T14:16:43.084Z,2.50
2023-02-03T14:19:10.839Z,2.40
2023-02-03T14:21:48.698Z,2.50
2023-02-03T14:24:15.648Z,2.63
2023-02-03T14:26:47.790Z,2.60
2023-02-03T14:29:28.115Z,2.40
2023-02-03T14:31:56.389Z,2.45
2023-02-03T14:34:30.931Z,2.30
2023-02-03T14:37:02.633Z,2.50
2023-02-03T14:39:40.481Z,3.00
2023-02-03T14:42:26.241Z,2.22
2023-02-03T14:44:56.203Z,2.50
2023-02-03T14:47:27.171Z,2.40
2023-02-03T14:50:02.906Z,2.50
2023-02-03T14:53:03.053Z,2.55
2023-02-03T14:55:59.482Z,2.30
2023-02-03T14:58:57.174Z,2.42
2023-02-03T15:01:48.159Z,2.72
2023-02-03T15:04:15.403Z,2.67
2023-02-03T15:06:44.157Z,2.60
2023-02-03T15:09:43.511Z,2.58
2023-02-03T15:12:20.012Z,2.40
2023-02-03T15:14:47.143Z,2.20
2023-02-03T15:17:20.830Z,2.30
2023-02-03T15:19:48.010Z,2.30
2023-02-03T15:22:25.592Z,2.45
2023-02-03T15:25:00.689Z,2.22
2023-02-03T15:27:29.612Z,2.30
2023-02-03T15:29:59.803Z,1.88
2023-02-03T15:32:35.122Z,2.15
2023-02-03T15:35:03.606Z,2.28
2023-02-03T15:37:38.582Z,2.28
2023-02-03T15:40:19.428Z,2.53
2023-02-03T15:43:09.236Z,2.10
2023-02-03T15:45:45.820Z,2.10
2023-02-03T15:48:44.947Z,2.00
2023-02-03T15:51:19.754Z,2.20
2023-02-03T15:54:05.129Z,2.38
2023-02-03T15:56:42.357Z,2.25
2023-02-03T15:59:24.255Z,2.55
2023-02-03T16:04:18.966Z,2.92
2023-02-03T16:06:47.965Z,2.60
2023-02-03T16:09:33.591Z,2.55
2023-02-03T16:12:17.124Z,2.70
2023-02-03T16:14:44.380Z,2.92
2023-02-03T16:17:31.476Z,2.90
2023-02-03T16:20:14.448Z,2.95
2023-02-03T16:22:46.084Z,3.88
2023-02-03T16:25:23.013Z,3.40
2023-02-03T16:28:27.493Z,2.90
2023-02-03T16:31:14.009Z,3.10
2023-02-03T16:34:03.734Z,3.40
2023-02-03T16:36:49.205Z,3.08
2023-02-03T16:39:34.721Z,3.08
2023-02-03T16:42:20.178Z,2.92
2023-02-03T16:45:05.412Z,3.08
2023-02-03T16:47:51.467Z,2.80
2023-02-03T16:50:41.547Z,3.20
2023-02-03T16:53:16.458Z,3.42
2023-02-03T16:55:43.792Z,3.40
2023-02-03T16:58:12.636Z,3.30
2023-02-03T17:00:43.579Z,3.50
2023-02-03T17:03:12.201Z,3.38
2023-02-03T17:05:39.667Z,3.45
2023-02-03T17:08:06.710Z,3.42
2023-02-03T17:10:34.919Z,3.40
2023-02-03T17:13:01.868Z,3.33
2023-02-03T17:15:29.223Z,3.20
2023-02-03T17:17:57.906Z,3.53
2023-02-03T17:20:24.982Z,3.20
2023-02-03T17:22:54.444Z,3.70
2023-02-03T17:25:21.454Z,4.03
2023-02-03T17:27:48.498Z,3.45
2023-02-03T17:30:16.352Z,3.30
2023-02-03T17:32:43.329Z,3.72
2023-02-03T17:35:10.294Z,3.60
2023-02-03T17:37:37.258Z,3.80
2023-02-03T17:54:06.345Z,4.05
2023-02-03T17:56:33.956Z,3.97
2023-02-03T17:59:01.813Z,3.72
2023-02-03T18:01:29.079Z,3.60
2023-02-03T18:04:00.493Z,3.90
2023-02-03T18:06:28.383Z,3.67
2023-02-03T18:09:01.103Z,3.55
2023-02-03T18:11:28.665Z,3.67
2023-02-03T18:13:55.700Z,3.95
2023-02-03T18:16:28.978Z,3.90
2023-02-03T18:18:56.329Z,4.00
2023-02-03T18:21:23.980Z,3.88
2023-02-03T18:23:51.313Z,3.92
2023-02-03T18:26:19.180Z,4.05
2023-02-03T18:28:46.356Z,3.65
2023-02-03T18:31:15.385Z,4.35
2023-02-03T18:33:43.126Z,3.53
2023-02-03T18:36:12.734Z,3.75
2023-02-03T18:38:40.233Z,3.75
2023-02-03T18:41:08.006Z,3.78
2023-02-03T18:43:35.305Z,3.42
2023-02-03T18:46:13.706Z,3.70
2023-02-03T18:48:40.645Z,4.18
2023-02-03T18:51:11.581Z,3.92
2023-02-03T18:53:38.579Z,3.37
2023-02-03T18:56:09.478Z,3.50
2023-02-03T18:58:39.623Z,3.90
2023-02-03T19:01:06.693Z,4.30
2023-02-03T19:03:34.417Z,4.03
2023-02-03T19:06:01.287Z,3.90
2023-02-03T19:08:28.390Z,4.55
2023-02-03T19:10:55.398Z,4.35
2023-02-03T19:13:23.200Z,3.92
2023-02-03T19:15:51.331Z,4.55
2023-02-03T19:18:18.337Z,3.78
2023-02-03T19:20:45.387Z,4.43
2023-02-03T19:23:12.569Z,4.15
2023-02-03T19:25:39.860Z,4.20
2023-02-03T19:28:14.243Z,4.32
2023-02-03T19:30:44.550Z,4.40
2023-02-03T19:33:11.510Z,3.92
2023-02-03T19:35:38.681Z,4.13
2023-02-03T19:38:05.680Z,3.88
2023-02-03T19:40:32.632Z,3.90
2023-02-03T19:42:59.686Z,4.25
2023-02-03T19:45:27.119Z,3.55
2023-02-03T19:47:54.035Z,3.97
2023-02-03T19:50:20.974Z,3.75
2023-02-03T19:52:49.156Z,4.60
2023-02-03T19:55:17.177Z,4.47
2023-02-03T19:57:44.250Z,4.85
2023-02-03T20:00:12.970Z,4.70
2023-02-03T20:02:45.523Z,4.20
2023-02-03T20:05:12.859Z,3.97
2023-02-03T20:07:39.913Z,4.25
2023-02-03T20:10:07.382Z,4.10
2023-02-03T20:12:34.368Z,4.40
2023-02-03T20:15:01.487Z,3.60
2023-02-03T20:17:28.780Z,3.70
2023-02-03T20:19:55.715Z,3.75
2023-02-03T20:22:22.800Z,3.58
2023-02-03T20:24:49.809Z,3.90
2023-02-03T20:27:17.961Z,3.75
2023-02-03T20:29:45.027Z,3.50
2023-02-03T20:32:12.061Z,3.85
2023-02-03T20:34:39.593Z,3.78
2023-02-03T20:37:08.062Z,4.13
2023-02-03T20:39:35.084Z,4.28
2023-02-03T20:42:02.092Z,3.90
2023-02-03T20:44:29.004Z,4.32
2023-02-03T20:46:56.076Z,4.13
2023-02-03T20:49:23.054Z,5.28
2023-02-03T20:51:50.217Z,4.30
2023-02-03T20:54:19.001Z,4.30
2023-02-03T20:56:46.131Z,4.75
2023-02-03T20:59:13.598Z,4.75
2023-02-03T21:01:40.650Z,4.72
2023-02-03T21:04:36.601Z,4.38
2023-02-03T21:07:11.630Z,4.60
2023-02-03T21:09:38.628Z,5.13
2023-02-03T21:12:13.567Z,5.63
2023-02-03T21:14:44.595Z,6.28
2023-02-03T21:17:38.430Z,6.88
2023-02-03T21:20:08.049Z,6.25
2023-02-03T21:22:35.040Z,6.78
2023-02-03T21:25:03.397Z,7.47
2023-02-03T21:27:33.144Z,7.85
2023-02-03T21:30:01.544Z,6.90
2023-02-03T21:32:39.365Z,8.00
2023-02-03T21:35:34.848Z,7.13
2023-02-03T21:38:03.970Z,7.78
2023-02-03T21:40:32.710Z,7.90
2023-02-03T21:43:02.440Z,8.02
2023-02-03T21:45:37.461Z,8.40
2023-02-03T21:48:24.181Z,7.82
2023-02-03T21:50:51.524Z,8.52
2023-02-03T21:53:32.182Z,7.88
2023-02-03T21:56:12.077Z,8.18
2023-02-03T21:58:39.078Z,7.95
2023-02-03T22:01:16.272Z,8.65
2023-02-03T22:03:48.679Z,8.35
2023-02-03T22:06:16.748Z,8.65
2023-02-03T22:08:48.022Z,9.25
2023-02-03T22:11:15.524Z,9.80
2023-02-03T22:13:42.889Z,8.85
2023-02-03T22:16:09.933Z,10.48
2023-02-03T22:18:36.979Z,9.20
2023-02-03T22:21:03.998Z,9.55
2023-02-03T22:23:31.049Z,9.43
2023-02-03T22:25:57.983Z,9.38
2023-02-03T22:28:24.959Z,8.95
2023-02-03T22:30:52.585Z,9.02
2023-02-03T22:33:19.619Z,9.00
2023-02-03T22:35:48.157Z,9.18
2023-02-03T22:38:17.001Z,9.05
2023-02-03T22:40:46.168Z,9.27
2023-02-03T22:43:14.241Z,9.00
2023-02-03T22:45:52.088Z,8.60
2023-02-03T22:48:19.521Z,8.77
2023-02-03T22:50:47.708Z,8.63
2023-02-03T22:53:16.797Z,8.20
2023-02-03T22:55:45.136Z,8.75
2023-02-03T22:58:13.975Z,8.50
2023-02-03T23:00:42.297Z,8.00
2023-02-03T23:03:10.073Z,9.02
2023-02-03T23:05:39.959Z,8.63
2023-02-03T23:08:10.098Z,8.95
2023-02-03T23:10:38.645Z,8.57
2023-02-03T23:13:10.411Z,9.13
2023-02-03T23:15:37.879Z,8.60
2023-02-03T23:18:05.704Z,9.73
2023-02-03T23:20:33.422Z,8.98
2023-02-03T23:23:00.787Z,8.57
2023-02-03T23:25:28.139Z,8.40
2023-02-03T23:27:55.521Z,8.55
2023-02-03T23:30:24.267Z,9.55
2023-02-03T23:32:51.920Z,9.20
2023-02-03T23:35:38.093Z,9.52
2023-02-03T23:38:05.373Z,8.98
2023-02-03T23:40:33.247Z,8.60
2023-02-03T23:43:00.915Z,8.65
2023-02-03T23:45:28.209Z,8.32
2023-02-03T23:47:56.179Z,9.07
2023-02-03T23:50:23.641Z,8.80
2023-02-03T23:52:50.982Z,9.32
2023-02-03T23:55:20.046Z,9.05
2023-02-03T23:57:47.952Z,9.77
